Time;durP1;ratioP1;P1;durP2;ratioP2;P2;SDS_P1;SDS_P2;PMS_P1;PMS_P2;Temp;Humidity;BMP_temperature;BMP_pressure;BME280_temperature;BME280_humidity;BME280_pressure;Samples;Min_cycle;Max_cycle;Signal;HPM_P1;HPM_P2
2021/03/03 00:02:09;;;;;;;38.22;34.65;;;5.20;81.70;;;;;;5095200;28;20199;-78
2021/03/03 00:04:35;;;;;;;38.17;34.58;;;5.10;82.20;;;;;;5095117;28;20684;-78
2021/03/03 00:07:02;;;;;;;36.33;32.92;;;5.00;82.50;;;;;;5094929;28;20195;-78
2021/03/03 00:09:28;;;;;;;39.03;35.22;;;5.00;82.50;;;;;;5094981;28;20219;-78
2021/03/03 00:11:55;;;;;;;36.05;32.83;;;5.00;82.20;;;;;;5095224;28;20191;-78
2021/03/03 00:14:21;;;;;;;38.28;34.88;;;5.00;82.20;;;;;;5095148;28;20218;-78
2021/03/03 00:16:48;;;;;;;37.53;34.03;;;4.90;82.20;;;;;;5094727;28;20195;-78
2021/03/03 00:19:15;;;;;;;38.70;34.88;;;4.90;82.40;;;;;;5094809;28;20236;-78
2021/03/03 00:21:41;;;;;;;38.78;34.55;;;5.00;82.20;;;;;;5094826;28;20201;-78
2021/03/03 00:24:08;;;;;;;39.88;35.88;;;5.00;81.90;;;;;;5094808;28;20199;-78
2021/03/03 00:26:34;;;;;;;40.20;36.53;;;4.90;82.20;;;;;;5094605;28;20210;-78
2021/03/03 00:29:01;;;;;;;38.00;34.13;;;4.80;82.60;;;;;;5094548;28;20722;-78
2021/03/03 00:31:27;;;;;;;37.78;34.03;;;4.80;83.00;;;;;;5094659;28;20191;-78
2021/03/03 00:33:53;;;;;;;37.42;33.97;;;4.70;83.30;;;;;;5094550;28;20613;-78
2021/03/03 00:36:21;;;;;;;37.60;33.80;;;4.70;83.50;;;;;;5094130;28;20253;-78
2021/03/03 00:38:47;;;;;;;38.30;34.58;;;4.70;83.40;;;;;;5094260;28;20207;-78
2021/03/03 00:41:13;;;;;;;37.15;33.78;;;4.70;84.70;;;;;;5094580;28;20226;-78
2021/03/03 00:43:40;;;;;;;37.47;33.95;;;4.60;84.30;;;;;;5094422;28;20209;-78
2021/03/03 00:46:06;;;;;;;36.97;33.55;;;4.70;84.20;;;;;;5094112;28;20290;-78
2021/03/03 00:48:32;;;;;;;37.28;33.80;;;4.60;84.30;;;;;;5094121;28;20633;-78
2021/03/03 00:50:59;;;;;;;37.50;34.10;;;4.60;84.50;;;;;;5094231;28;20199;-78
2021/03/03 00:53:26;;;;;;;66.20;37.90;;;4.60;84.70;;;;;;5094162;28;20199;-78
2021/03/03 00:55:53;;;;;;;1824.47;278.13;;;4.60;84.90;;;;;;5094205;28;20205;-78
2021/03/03 00:58:20;;;;;;;35.83;32.67;;;4.60;93.40;;;;;;5094094;28;20211;-78
2021/03/03 01:00:47;;;;;;;38.38;34.67;;;4.60;91.60;;;;;;5094040;28;20623;-78
2021/03/03 01:03:13;;;;;;;37.75;33.75;;;4.60;89.70;;;;;;5093950;28;20222;-78
2021/03/03 01:05:41;;;;;;;36.20;32.75;;;4.60;88.30;;;;;;5094629;28;20200;-78
2021/03/03 01:08:07;;;;;;;36.40;32.67;;;4.60;87.30;;;;;;5095433;28;20230;-78
2021/03/03 01:10:35;;;;;;;36.42;33.13;;;4.60;86.70;;;;;;5094022;28;20195;-78
2021/03/03 01:13:02;;;;;;;40.97;33.42;;;4.60;85.80;;;;;;5094308;28;20290;-78
2021/03/03 01:15:28;;;;;;;35.35;31.95;;;4.70;85.40;;;;;;5094951;28;20203;-78
2021/03/03 01:18:00;;;;;;;36.08;32.72;;;4.70;85.10;;;;;;5094436;28;20248;-78
2021/03/03 01:20:27;;;;;;;36.72;33.05;;;4.70;84.70;;;;;;5093873;28;20195;-78
2021/03/03 01:22:53;;;;;;;37.00;33.40;;;4.70;84.80;;;;;;5093878;28;20298;-78
2021/03/03 01:25:19;;;;;;;36.35;33.05;;;4.60;84.80;;;;;;5093725;28;20662;-78
2021/03/03 01:27:47;;;;;;;36.90;33.28;;;4.60;84.90;;;;;;5093589;28;20692;-78
2021/03/03 01:30:14;;;;;;;37.47;34.38;;;4.70;84.60;;;;;;5093507;28;20199;-78
2021/03/03 01:32:41;;;;;;;37.55;33.38;;;4.70;84.50;;;;;;5093705;28;20203;-78
2021/03/03 01:35:08;;;;;;;35.45;31.85;;;4.70;84.30;;;;;;5093517;28;20252;-78
2021/03/03 01:37:35;;;;;;;36.90;33.22;;;4.70;84.40;;;;;;5094923;28;20195;-78
2021/03/03 01:40:01;;;;;;;36.63;32.72;;;4.60;84.60;;;;;;5101130;28;20225;-78
2021/03/03 01:42:28;;;;;;;36.22;32.92;;;4.60;84.70;;;;;;5093056;28;20286;-78
2021/03/03 01:44:55;;;;;;;35.20;31.90;;;4.60;84.70;;;;;;5093568;28;20278;-78
2021/03/03 01:47:22;;;;;;;36.08;32.28;;;4.60;84.60;;;;;;5092402;28;20720;-78
2021/03/03 01:49:48;;;;;;;36.03;32.40;;;4.60;84.50;;;;;;5093258;28;20715;-78
2021/03/03 01:52:17;;;;;;;35.33;32.20;;;4.70;84.30;;;;;;5093127;28;20199;-78
2021/03/03 01:54:44;;;;;;;35.78;32.38;;;4.70;84.20;;;;;;5093127;28;20610;-78
2021/03/03 01:57:12;;;;;;;36.42;32.97;;;4.70;84.70;;;;;;5092914;28;20224;-78
2021/03/03 01:59:38;;;;;;;37.42;33.80;;;4.70;84.70;;;;;;5093381;28;20215;-77
2021/03/03 02:02:06;;;;;;;37.58;34.08;;;4.70;84.60;;;;;;5093078;28;20195;-78
2021/03/03 02:04:33;;;;;;;37.17;33.08;;;4.80;84.00;;;;;;5092942;28;20205;-78
2021/03/03 02:07:07;;;;;;;35.95;32.63;;;4.80;84.20;;;;;;5092825;28;20222;-78
2021/03/03 02:09:43;;;;;;;37.85;33.95;;;4.80;86.00;;;;;;5092779;28;20227;-78
2021/03/03 02:12:15;;;;;;;38.10;34.25;;;4.80;85.30;;;;;;5093096;28;20195;-78
2021/03/03 02:14:48;;;;;;;37.10;33.45;;;4.90;84.90;;;;;;5092913;28;20264;-78
2021/03/03 02:17:17;;;;;;;37.22;33.45;;;4.90;84.40;;;;;;5092783;28;20195;-78
2021/03/03 02:19:44;;;;;;;36.78;33.10;;;5.00;83.80;;;;;;5092709;28;20298;-77
2021/03/03 02:22:18;;;;;;;37.05;33.45;;;5.00;83.40;;;;;;5092786;28;20232;-78
2021/03/03 02:24:51;;;;;;;36.15;32.65;;;5.00;83.60;;;;;;5092703;28;20325;-78
2021/03/03 02:27:21;;;;;;;34.33;31.30;;;5.00;85.10;;;;;;5092752;28;20199;-78
2021/03/03 02:29:50;;;;;;;34.97;32.03;;;5.00;84.30;;;;;;5092752;28;20638;-78
2021/03/03 02:32:18;;;;;;;37.58;33.78;;;5.00;83.80;;;;;;5092832;28;20560;-78
2021/03/03 02:34:46;;;;;;;37.75;34.15;;;4.90;83.80;;;;;;5092628;28;20251;-77
2021/03/03 02:37:14;;;;;;;34.58;31.27;;;4.80;84.60;;;;;;5092397;28;20206;-77
2021/03/03 02:39:41;;;;;;;35.47;32.20;;;4.90;85.00;;;;;;5092834;28;20215;-78
2021/03/03 02:42:09;;;;;;;36.15;32.45;;;4.90;84.60;;;;;;5092433;28;20221;-78
2021/03/03 02:44:38;;;;;;;36.92;33.33;;;4.90;83.80;;;;;;5092735;28;20286;-78
2021/03/03 02:47:05;;;;;;;37.75;34.03;;;4.90;83.40;;;;;;5092378;28;20413;-78
2021/03/03 02:49:32;;;;;;;37.65;34.42;;;4.80;83.30;;;;;;5092389;28;20726;-78
2021/03/03 02:51:59;;;;;;;37.80;34.00;;;4.80;83.40;;;;;;5092684;28;20202;-78
2021/03/03 02:54:25;;;;;;;36.85;33.28;;;4.70;83.40;;;;;;5092535;28;20200;-78
2021/03/03 02:56:52;;;;;;;36.50;32.85;;;4.70;83.70;;;;;;5092342;28;20290;-78
2021/03/03 02:59:26;;;;;;;38.80;35.10;;;4.70;83.70;;;;;;5095540;28;20243;-78
2021/03/03 03:01:55;;;;;;;35.95;32.35;;;4.80;83.40;;;;;;5096516;28;20205;-78
2021/03/03 03:04:23;;;;;;;39.70;35.42;;;4.70;83.70;;;;;;5096869;28;20281;-78
2021/03/03 03:06:51;;;;;;;35.97;32.58;;;4.70;84.20;;;;;;5096185;28;20618;-78
2021/03/03 03:09:19;;;;;;;36.60;32.75;;;4.60;84.70;;;;;;5096124;28;20680;-77
2021/03/03 03:11:48;;;;;;;37.53;33.83;;;4.60;84.50;;;;;;5096198;28;20254;-78
2021/03/03 03:14:18;;;;;;;36.17;32.75;;;4.70;84.30;;;;;;5096240;28;20281;-78
2021/03/03 03:16:47;;;;;;;38.28;34.72;;;4.70;83.90;;;;;;5095992;28;20680;-78
2021/03/03 03:19:19;;;;;;;37.50;33.97;;;4.80;83.50;;;;;;5096188;28;20215;-78
2021/03/03 03:21:48;;;;;;;36.47;33.30;;;4.80;83.20;;;;;;5096312;28;20694;-78
2021/03/03 03:24:18;;;;;;;38.45;34.38;;;4.70;83.60;;;;;;5096170;28;20191;-78
2021/03/03 03:26:47;;;;;;;34.95;31.90;;;4.60;84.00;;;;;;5096059;28;20202;-78
2021/03/03 03:29:15;;;;;;;37.17;33.95;;;4.50;85.00;;;;;;5095959;28;20223;-77
2021/03/03 03:31:43;;;;;;;37.65;33.88;;;4.50;85.00;;;;;;5096689;28;20207;-78
2021/03/03 03:34:11;;;;;;;37.95;34.10;;;4.60;84.60;;;;;;5096591;28;20668;-78
2021/03/03 03:36:39;;;;;;;39.10;35.30;;;4.60;84.60;;;;;;5098935;28;20201;-79
2021/03/03 03:39:08;;;;;;;35.80;32.30;;;4.60;84.80;;;;;;5100178;28;20241;-78
2021/03/03 03:41:36;;;;;;;36.13;32.97;;;4.60;84.70;;;;;;5096801;28;20264;-78
2021/03/03 03:44:05;;;;;;;36.63;33.22;;;4.60;84.50;;;;;;5096372;28;20196;-78
2021/03/03 03:46:33;;;;;;;36.67;33.08;;;4.50;84.30;;;;;;5096488;28;20286;-78
2021/03/03 03:48:59;;;;;;;37.78;33.95;;;4.60;84.40;;;;;;5096936;28;20308;-78
2021/03/03 03:51:27;;;;;;;36.90;33.65;;;4.60;84.10;;;;;;5095908;28;20191;-77
2021/03/03 03:53:54;;;;;;;36.22;32.60;;;4.60;84.10;;;;;;5095649;28;20209;-78
2021/03/03 03:56:21;;;;;;;35.45;32.03;;;4.60;84.30;;;;;;5095335;28;20207;-78
2021/03/03 03:58:47;;;;;;;37.08;33.58;;;4.50;84.10;;;;;;5095511;28;20214;-78
2021/03/03 04:01:14;;;;;;;38.80;34.78;;;4.60;84.00;;;;;;5095478;28;20609;-78
2021/03/03 04:03:40;;;;;;;38.72;34.75;;;4.60;83.90;;;;;;5095315;28;20211;-78
2021/03/03 04:06:06;;;;;;;36.45;32.85;;;4.50;85.10;;;;;;5095264;28;20238;-77
2021/03/03 04:08:33;;;;;;;36.42;32.90;;;4.40;85.40;;;;;;5095201;28;20264;-78
2021/03/03 04:11:00;;;;;;;38.05;34.47;;;4.50;85.20;;;;;;5094655;28;20282;-78
2021/03/03 04:13:26;;;;;;;39.03;35.42;;;4.50;84.80;;;;;;5095420;28;20218;-78
2021/03/03 04:15:53;;;;;;;38.53;34.72;;;4.50;84.50;;;;;;5095575;28;20199;-78
2021/03/03 04:18:19;;;;;;;38.78;35.05;;;4.60;84.40;;;;;;5095188;28;20772;-77
2021/03/03 04:20:46;;;;;;;38.53;34.50;;;4.50;84.30;;;;;;5095258;28;20255;-78
2021/03/03 04:23:12;;;;;;;41.47;37.63;;;4.40;84.60;;;;;;5096047;28;20237;-78
2021/03/03 04:25:38;;;;;;;39.47;35.50;;;4.40;85.10;;;;;;5097227;28;20195;-77
2021/03/03 04:28:07;;;;;;;38.05;34.55;;;4.40;85.10;;;;;;5096084;28;20310;-78
2021/03/03 04:30:33;;;;;;;37.20;33.78;;;4.40;85.00;;;;;;5094826;28;20195;-78
2021/03/03 04:33:00;;;;;;;39.05;35.20;;;4.40;84.80;;;;;;5094928;28;20290;-78
2021/03/03 04:35:26;;;;;;;39.05;35.25;;;4.40;84.80;;;;;;5094521;28;20301;-78
2021/03/03 04:37:53;;;;;;;38.38;34.92;;;4.40;84.80;;;;;;5094182;28;20199;-78
2021/03/03 04:40:19;;;;;;;37.65;33.97;;;4.50;84.70;;;;;;5094754;28;20679;-78
2021/03/03 04:42:46;;;;;;;272.38;66.30;;;4.40;86.70;;;;;;5094423;28;20199;-78
2021/03/03 04:45:14;;;;;;;35.40;31.88;;;4.50;94.10;;;;;;5094714;28;20195;-78
2021/03/03 04:47:41;;;;;;;37.17;33.67;;;4.50;93.90;;;;;;5094778;28;20587;-78
2021/03/03 04:50:09;;;;;;;38.70;35.00;;;4.50;91.60;;;;;;5094927;28;20194;-78
2021/03/03 04:52:36;;;;;;;36.38;32.88;;;4.60;88.90;;;;;;5094965;28;20250;-78
2021/03/03 04:55:04;;;;;;;36.90;33.38;;;4.60;87.70;;;;;;5094675;28;20309;-78
2021/03/03 04:57:30;;;;;;;39.55;35.53;;;4.50;87.00;;;;;;5094341;28;20217;-78
2021/03/03 04:59:57;;;;;;;39.10;35.55;;;4.50;87.50;;;;;;5095046;28;20711;-78
2021/03/03 05:02:24;;;;;;;39.58;35.47;;;4.50;87.60;;;;;;5095004;28;20278;-78
2021/03/03 05:04:51;;;;;;;36.83;33.63;;;4.60;86.60;;;;;;5094606;28;20741;-78
2021/03/03 05:07:17;;;;;;;37.85;34.30;;;4.50;85.90;;;;;;5095042;28;20661;-78
2021/03/03 05:09:43;;;;;;;37.70;33.97;;;4.40;85.90;;;;;;5094800;28;20219;-78
2021/03/03 05:12:10;;;;;;;38.70;34.92;;;4.50;85.90;;;;;;5094552;28;20286;-78
2021/03/03 05:14:36;;;;;;;40.83;36.83;;;4.50;85.50;;;;;;5095482;28;20217;-78
2021/03/03 05:17:03;;;;;;;42.58;38.10;;;4.60;85.60;;;;;;5095077;28;20235;-78
2021/03/03 05:19:30;;;;;;;38.17;34.47;;;4.60;89.40;;;;;;5094695;28;20214;-77
2021/03/03 05:21:57;;;;;;;40.15;36.00;;;4.60;87.10;;;;;;5094144;28;20191;-78
2021/03/03 05:24:23;;;;;;;36.33;32.88;;;4.60;86.40;;;;;;5094487;28;20235;-78
2021/03/03 05:26:49;;;;;;;39.65;36.03;;;4.60;86.10;;;;;;5094335;28;20200;-78
2021/03/03 05:29:16;;;;;;;39.80;36.03;;;4.60;85.90;;;;;;5094412;28;20223;-77
2021/03/03 05:31:42;;;;;;;38.10;34.53;;;4.60;85.40;;;;;;5094946;28;20199;-78
2021/03/03 05:34:08;;;;;;;40.72;36.50;;;4.60;85.10;;;;;;5098071;28;20195;-78
2021/03/03 05:36:35;;;;;;;40.75;36.33;;;4.70;85.20;;;;;;5097116;28;20710;-78
2021/03/03 05:39:03;;;;;;;40.13;36.22;;;4.70;84.80;;;;;;5093795;28;20203;-78
2021/03/03 05:41:29;;;;;;;39.03;35.33;;;4.70;84.80;;;;;;5094595;28;20749;-78
2021/03/03 05:43:56;;;;;;;40.67;37.05;;;4.70;84.70;;;;;;5094511;28;20199;-78
2021/03/03 05:46:22;;;;;;;40.95;36.85;;;4.70;84.60;;;;;;5094057;28;20195;-78
2021/03/03 05:48:53;;;;;;;37.22;33.47;;;4.80;84.30;;;;;;5094302;28;20234;-78
2021/03/03 05:51:22;;;;;;;40.03;36.25;;;4.90;83.90;;;;;;5094429;28;20282;-78
2021/03/03 05:53:50;;;;;;;41.05;37.22;;;4.90;83.50;;;;;;5093874;28;20199;-78
2021/03/03 05:56:19;;;;;;;41.05;37.05;;;4.90;83.70;;;;;;5093703;28;20256;-78
2021/03/03 05:58:46;;;;;;;41.20;37.30;;;4.80;85.10;;;;;;5093956;28;20207;-78
2021/03/03 06:01:13;;;;;;;41.42;37.33;;;4.80;84.80;;;;;;5094044;28;20196;-78
2021/03/03 06:03:39;;;;;;;41.00;37.05;;;4.80;84.40;;;;;;5094020;28;20203;-78
2021/03/03 06:06:06;;;;;;;42.08;37.97;;;5.00;83.60;;;;;;5093443;28;20199;-77
2021/03/03 06:08:33;;;;;;;39.83;36.03;;;4.90;83.30;;;;;;5093748;28;20233;-78
2021/03/03 06:11:01;;;;;;;42.22;36.53;;;4.90;83.60;;;;;;5093610;28;20195;-78
2021/03/03 06:13:28;;;;;;;38.53;34.80;;;5.00;83.40;;;;;;5093574;28;20195;-78
2021/03/03 06:15:54;;;;;;;38.72;34.90;;;4.90;84.20;;;;;;5093304;28;20195;-78
2021/03/03 06:18:22;;;;;;;41.42;37.42;;;5.00;83.80;;;;;;5093654;28;20223;-78
2021/03/03 06:20:50;;;;;;;41.03;36.67;;;4.90;83.50;;;;;;5093622;28;20249;-78
2021/03/03 06:23:19;;;;;;;42.90;37.72;;;5.00;83.40;;;;;;5093772;28;20287;-78
2021/03/03 06:25:47;;;;;;;39.83;36.22;;;5.00;83.10;;;;;;5093099;28;20195;-78
2021/03/03 06:28:31;;;;;;;41.17;37.33;;;5.10;83.70;;;;;;5092765;28;20673;-78
2021/03/03 06:30:58;;;;;;;41.97;38.00;;;5.00;85.90;;;;;;5093042;28;20195;-78
2021/03/03 06:33:25;;;;;;;39.28;35.47;;;5.00;87.20;;;;;;5094414;28;20201;-78
2021/03/03 06:35:52;;;;;;;40.33;36.80;;;5.00;85.70;;;;;;5096964;28;20668;-78
2021/03/03 06:38:26;;;;;;;53.30;37.78;;;5.00;85.50;;;;;;5096640;28;20341;-78
2021/03/03 06:40:54;;;;;;;40.65;35.88;;;5.10;84.90;;;;;;5096893;28;20665;-78
2021/03/03 06:43:24;;;;;;;39.90;35.92;;;5.20;84.70;;;;;;5097137;28;20206;-78
2021/03/03 06:45:50;;;;;;;41.30;37.50;;;5.20;87.70;;;;;;5097271;28;20210;-78
2021/03/03 06:48:35;;;;;;;40.92;36.85;;;5.30;85.30;;;;;;5097212;28;20631;-78
2021/03/03 06:51:17;;;;;;;41.50;37.65;;;5.40;84.50;;;;;;5097515;28;20199;-78
2021/03/03 06:53:44;;;;;;;42.70;38.28;;;5.40;83.40;;;;;;5097122;28;20199;-78
2021/03/03 06:56:10;;;;;;;40.58;36.65;;;5.50;82.50;;;;;;5096544;28;20234;-78
2021/03/03 06:58:37;;;;;;;43.28;38.75;;;5.50;82.40;;;;;;5096728;28;20316;-78
2021/03/03 07:01:04;;;;;;;43.72;39.15;;;5.60;82.10;;;;;;5096558;28;20195;-77
2021/03/03 07:03:34;;;;;;;41.92;37.50;;;5.70;81.90;;;;;;5096916;28;20224;-77
2021/03/03 07:06:01;;;;;;;42.20;38.10;;;5.70;81.40;;;;;;5096374;28;20199;-77
2021/03/03 07:08:29;;;;;;;42.95;38.85;;;5.80;81.00;;;;;;5096427;28;20233;-78
2021/03/03 07:10:56;;;;;;;39.90;35.95;;;5.90;80.10;;;;;;5096534;28;20202;-78
2021/03/03 07:13:39;;;;;;;42.25;37.92;;;5.90;80.10;;;;;;5096548;28;20671;-78
2021/03/03 07:16:07;;;;;;;42.78;38.67;;;5.90;80.40;;;;;;5094455;28;20219;-78
2021/03/03 07:18:35;;;;;;;43.90;39.40;;;5.90;80.40;;;;;;5096362;28;20211;-78
2021/03/03 07:21:02;;;;;;;42.78;38.83;;;6.00;80.30;;;;;;5096385;28;20212;-79
2021/03/03 07:23:43;;;;;;;42.95;38.60;;;6.10;80.10;;;;;;5096294;28;20548;-78
2021/03/03 07:26:10;;;;;;;42.85;38.50;;;6.20;82.20;;;;;;5095941;28;20198;-78
2021/03/03 07:28:38;;;;;;;42.50;38.40;;;6.30;80.90;;;;;;5096352;28;20227;-78
2021/03/03 07:31:05;;;;;;;40.28;36.53;;;6.30;80.00;;;;;;5099039;28;20597;-78
2021/03/03 07:33:32;;;;;;;45.03;40.90;;;6.50;79.70;;;;;;5102714;28;20206;-78
2021/03/03 07:36:00;;;;;;;40.10;36.72;;;6.60;79.00;;;;;;5099721;28;20206;-78
2021/03/03 07:38:30;;;;;;;41.83;38.03;;;6.70;78.50;;;;;;5097656;28;20760;-78
2021/03/03 07:41:02;;;;;;;41.45;37.65;;;6.80;77.70;;;;;;5096084;28;20659;-78
2021/03/03 07:43:30;;;;;;;41.80;37.95;;;6.80;77.50;;;;;;5095721;28;20199;-78
2021/03/03 07:45:58;;;;;;;44.63;40.13;;;6.90;77.50;;;;;;5094875;28;20199;-78
2021/03/03 07:48:28;;;;;;;40.72;37.10;;;7.10;77.20;;;;;;5095435;28;20222;-78
2021/03/03 07:50:55;;;;;;;42.63;38.55;;;7.20;76.40;;;;;;5095780;28;20198;-79
2021/03/03 07:53:22;;;;;;;42.10;38.05;;;7.30;76.30;;;;;;5095734;28;20297;-78
2021/03/03 07:55:49;;;;;;;41.20;37.13;;;7.40;75.70;;;;;;5096417;28;20233;-78
2021/03/03 07:58:16;;;;;;;41.53;37.85;;;7.50;75.30;;;;;;5096031;28;20283;-79
2021/03/03 08:00:43;;;;;;;42.67;38.47;;;7.60;75.30;;;;;;5095677;28;20564;-78
2021/03/03 08:03:10;;;;;;;41.30;37.47;;;7.80;74.70;;;;;;5095452;28;20210;-78
2021/03/03 08:05:38;;;;;;;44.20;39.88;;;7.80;74.30;;;;;;5095275;28;20199;-78
2021/03/03 08:08:23;;;;;;;42.33;38.45;;;7.90;74.20;;;;;;5095815;28;20313;-78
2021/03/03 08:10:51;;;;;;;43.10;39.10;;;8.00;74.20;;;;;;5095635;28;20256;-78
2021/03/03 08:13:31;;;;;;;41.83;38.10;;;8.00;74.10;;;;;;5095865;28;20195;-78
2021/03/03 08:15:58;;;;;;;43.13;39.20;;;8.10;74.00;;;;;;5095926;28;20205;-78
2021/03/03 08:18:29;;;;;;;42.53;38.55;;;8.20;73.10;;;;;;5095311;28;20211;-78
2021/03/03 08:20:58;;;;;;;44.08;39.75;;;8.40;72.80;;;;;;5095306;28;20256;-78
2021/03/03 08:23:47;;;;;;;41.90;37.97;;;8.50;72.20;;;;;;5095154;28;20210;-77
2021/03/03 08:26:46;;;;;;;46.30;41.97;;;8.60;71.60;;;;;;5094998;28;20195;-77
2021/03/03 08:29:21;;;;;;;42.17;38.50;;;8.60;71.50;;;;;;5095091;28;20246;-78
2021/03/03 08:31:48;;;;;;;43.72;40.13;;;8.70;71.50;;;;;;5095194;28;20289;-78
2021/03/03 08:34:15;;;;;;;43.92;39.63;;;8.80;71.60;;;;;;5095352;28;20737;-78
2021/03/03 08:37:01;;;;;;;42.17;38.38;;;8.90;71.50;;;;;;5094636;28;20296;-78
2021/03/03 08:39:33;;;;;;;45.28;40.65;;;9.00;71.20;;;;;;5094956;28;20260;-78
2021/03/03 08:42:03;;;;;;;44.53;39.63;;;9.20;70.70;;;;;;5094939;28;20222;-78
2021/03/03 08:44:29;;;;;;;41.10;37.38;;;9.30;70.10;;;;;;5095516;28;21169;-78
2021/03/03 08:46:56;;;;;;;43.20;39.20;;;9.40;70.00;;;;;;5095080;28;20195;-78
2021/03/03 08:49:29;;;;;;;42.03;37.25;;;9.60;69.60;;;;;;5094647;28;20223;-78
2021/03/03 08:52:11;;;;;;;42.17;37.92;;;9.80;68.20;;;;;;5095094;28;20248;-78
2021/03/03 08:54:43;;;;;;;41.83;37.93;;;9.90;67.90;;;;;;5094984;28;20211;-78
2021/03/03 08:57:37;;;;;;;44.50;39.97;;;10.10;67.80;;;;;;5094767;28;20453;-78
2021/03/03 09:00:06;;;;;;;42.80;39.00;;;10.20;67.60;;;;;;5095529;28;20560;-78
2021/03/03 09:02:40;;;;;;;40.57;36.93;;;10.30;67.00;;;;;;5095337;28;20461;-78
2021/03/03 09:05:12;;;;;;;41.30;37.73;;;10.50;66.10;;;;;;5097160;28;20540;-78
2021/03/03 09:07:39;;;;;;;41.40;37.60;;;10.60;65.00;;;;;;5109400;28;20481;-78
2021/03/03 09:10:10;;;;;;;41.80;37.97;;;10.60;66.70;;;;;;5110502;28;20541;-78
2021/03/03 09:12:39;;;;;;;43.07;39.50;;;10.70;65.90;;;;;;5110603;28;20540;-78
2021/03/03 09:15:08;;;;;;;41.70;37.60;;;10.80;65.70;;;;;;5105833;28;20461;-78
2021/03/03 09:17:36;;;;;;;44.50;40.50;;;11.00;64.10;;;;;;5109046;28;20464;-78
2021/03/03 09:20:05;;;;;;;42.20;38.47;;;11.10;63.70;;;;;;5110137;28;20523;-78
2021/03/03 09:22:33;;;;;;;42.87;38.57;;;11.20;63.20;;;;;;5109387;28;20449;-78
2021/03/03 09:25:16;;;;;;;43.33;39.43;;;11.20;62.60;;;;;;5109674;28;20441;-78
2021/03/03 09:27:48;;;;;;;47.43;38.20;;;11.20;62.90;;;;;;5109000;28;20449;-78
2021/03/03 09:30:16;;;;;;;47.40;42.83;;;11.20;63.00;;;;;;5106572;28;20503;-78
2021/03/03 09:32:42;;;;;;;44.47;39.97;;;11.30;63.10;;;;;;5105525;28;20448;-78
2021/03/03 09:35:11;;;;;;;42.47;38.87;;;11.40;62.70;;;;;;5104952;28;20481;-78
2021/03/03 09:37:39;;;;;;;44.00;40.00;;;11.40;61.80;;;;;;5105671;28;20449;-78
2021/03/03 09:40:09;;;;;;;43.83;39.67;;;11.40;62.30;;;;;;5095528;28;20446;-78
2021/03/03 09:42:39;;;;;;;43.27;39.33;;;11.60;62.00;;;;;;5094314;28;20460;-78
2021/03/03 09:45:09;;;;;;;42.83;39.13;;;11.70;61.00;;;;;;5094906;28;20445;-78
2021/03/03 09:47:38;;;;;;;43.47;39.30;;;11.80;60.80;;;;;;5095439;28;20449;-78
2021/03/03 09:50:07;;;;;;;41.90;37.90;;;11.90;60.60;;;;;;5107060;28;20566;-79
2021/03/03 09:52:41;;;;;;;42.00;38.43;;;11.90;60.00;;;;;;5106205;28;20449;-78
2021/03/03 09:55:12;;;;;;;43.57;39.20;;;12.00;60.00;;;;;;5093732;28;20447;-78
2021/03/03 09:57:38;;;;;;;44.17;39.57;;;12.10;59.80;;;;;;5093616;28;20468;-78
2021/03/03 10:00:07;;;;;;;41.53;37.90;;;12.10;59.80;;;;;;5093530;28;20820;-78
2021/03/03 10:02:34;;;;;;;42.67;39.13;;;12.30;59.60;;;;;;5093678;28;20447;-78
2021/03/03 10:05:02;;;;;;;42.77;38.77;;;12.30;59.60;;;;;;5093416;28;20540;-78
2021/03/03 10:07:29;;;;;;;44.60;40.20;;;12.40;58.80;;;;;;5092710;28;20460;-78
2021/03/03 10:09:56;;;;;;;40.27;36.57;;;12.40;58.70;;;;;;5093254;28;20560;-78
2021/03/03 10:12:25;;;;;;;44.07;39.40;;;12.50;58.90;;;;;;5093800;28;20539;-78
2021/03/03 10:15:03;;;;;;;43.80;40.07;;;12.60;58.80;;;;;;5093391;28;20490;-78
2021/03/03 10:17:31;;;;;;;44.23;40.50;;;12.80;60.20;;;;;;5092988;28;20965;-78
2021/03/03 10:19:58;;;;;;;47.27;42.40;;;12.80;60.10;;;;;;5093300;28;20526;-78
2021/03/03 10:22:25;;;;;;;45.90;41.20;;;13.00;59.10;;;;;;5094365;28;20453;-78
2021/03/03 10:25:00;;;;;;;46.73;41.20;;;13.10;59.10;;;;;;5094277;28;20457;-78
2021/03/03 10:27:35;;;;;;;45.87;41.60;;;13.00;59.70;;;;;;5093535;28;20544;-78
2021/03/03 10:30:20;;;;;;;47.57;42.83;;;13.00;60.70;;;;;;5093178;28;20567;-79
2021/03/03 10:32:47;;;;;;;47.23;43.03;;;13.20;59.80;;;;;;5095423;28;20449;-79
2021/03/03 10:35:14;;;;;;;46.30;42.10;;;13.10;66.00;;;;;;5093650;28;20449;-78
2021/03/03 10:37:40;;;;;;;47.33;42.30;;;13.20;61.40;;;;;;5092551;28;20451;-78
2021/03/03 10:40:14;;;;;;;44.80;40.37;;;13.30;59.00;;;;;;5092875;28;20447;-79
2021/03/03 10:42:42;;;;;;;45.47;41.37;;;13.40;58.00;;;;;;5093346;28;20510;-78
2021/03/03 10:45:24;;;;;;;47.27;42.93;;;13.40;58.00;;;;;;5094611;28;20925;-78
2021/03/03 10:47:51;;;;;;;45.43;41.10;;;13.50;57.70;;;;;;5091802;28;20531;-78
2021/03/03 10:50:19;;;;;;;46.47;41.60;;;13.70;57.00;;;;;;5092585;28;20477;-78
2021/03/03 10:53:00;;;;;;;46.97;42.80;;;13.60;57.80;;;;;;5092643;28;20453;-78
2021/03/03 10:55:31;;;;;;;50.47;42.87;;;13.70;57.20;;;;;;5092657;28;20457;-80
2021/03/03 10:58:04;;;;;;;46.00;41.30;;;13.80;56.70;;;;;;5092725;28;20453;-78
2021/03/03 11:00:32;;;;;;;47.57;43.00;;;13.90;56.40;;;;;;5092722;28;20445;-78
2021/03/03 11:03:03;;;;;;;47.33;43.10;;;13.80;56.30;;;;;;5092478;28;20469;-78
2021/03/03 11:05:29;;;;;;;48.23;43.70;;;13.90;56.40;;;;;;5092433;28;20459;-79
2021/03/03 11:07:56;;;;;;;47.80;43.33;;;14.00;56.10;;;;;;5092513;28;20901;-78
2021/03/03 11:10:23;;;;;;;46.40;42.17;;;13.90;57.10;;;;;;5092484;28;21005;-78
2021/03/03 11:12:50;;;;;;;52.00;41.30;;;13.90;56.20;;;;;;5092681;28;20449;-79
2021/03/03 11:15:18;;;;;;;48.23;43.33;;;13.80;56.60;;;;;;5092931;28;20449;-79
2021/03/03 11:17:45;;;;;;;44.30;39.80;;;13.90;56.50;;;;;;5092555;28;20453;-79
2021/03/03 11:20:12;;;;;;;46.00;41.07;;;14.00;56.20;;;;;;5095612;28;20451;-79
2021/03/03 11:22:38;;;;;;;45.70;40.30;;;13.90;58.90;;;;;;5096583;28;20449;-79
2021/03/03 11:25:06;;;;;;;44.67;40.27;;;13.90;57.40;;;;;;5096462;28;20964;-79
2021/03/03 11:27:32;;;;;;;44.53;40.33;;;13.80;56.60;;;;;;5102330;28;20536;-79
2021/03/03 11:29:59;;;;;;;43.63;39.70;;;13.90;56.60;;;;;;5102017;28;20876;-79
2021/03/03 11:32:26;;;;;;;43.80;39.63;;;14.00;56.30;;;;;;5096124;28;20453;-78
2021/03/03 11:34:52;;;;;;;44.13;39.97;;;14.10;56.20;;;;;;5096190;28;20459;-79
2021/03/03 11:37:19;;;;;;;44.37;39.97;;;14.20;55.90;;;;;;5096073;28;20500;-79
2021/03/03 11:39:45;;;;;;;46.00;41.40;;;14.20;56.70;;;;;;5096908;28;20557;-79
2021/03/03 11:42:11;;;;;;;43.57;39.47;;;14.30;55.60;;;;;;5096807;28;20522;-79
2021/03/03 11:44:38;;;;;;;45.37;41.27;;;14.30;56.30;;;;;;5097189;28;20560;-79
2021/03/03 11:47:05;;;;;;;46.57;41.97;;;14.30;55.90;;;;;;5096395;28;20460;-79
2021/03/03 11:49:32;;;;;;;46.47;42.40;;;14.40;56.50;;;;;;5095971;28;20485;-81
2021/03/03 11:51:58;;;;;;;44.97;40.77;;;14.40;55.90;;;;;;5096659;28;20456;-79
2021/03/03 11:54:25;;;;;;;43.87;39.90;;;14.40;55.60;;;;;;5096098;28;20452;-79
2021/03/03 11:56:51;;;;;;;46.93;42.40;;;14.40;55.60;;;;;;5096693;28;20457;-79
2021/03/03 11:59:18;;;;;;;46.70;42.50;;;14.60;54.90;;;;;;5096852;28;20473;-79
2021/03/03 12:01:44;;;;;;;46.57;42.27;;;14.60;55.80;;;;;;5098135;28;20450;-79
2021/03/03 12:04:10;;;;;;;44.87;40.50;;;14.90;54.70;;;;;;5097850;28;21011;-79
2021/03/03 12:06:38;;;;;;;45.17;40.97;;;14.80;55.30;;;;;;5096031;28;20449;-79
2021/03/03 12:09:05;;;;;;;46.87;42.87;;;14.60;57.10;;;;;;5095746;28;20572;-79
2021/03/03 12:11:31;;;;;;;45.73;41.77;;;14.60;55.10;;;;;;5095322;28;20449;-79
2021/03/03 12:13:57;;;;;;;46.17;42.17;;;14.60;56.30;;;;;;5095316;28;20457;-79
2021/03/03 12:16:24;;;;;;;48.63;43.63;;;14.90;55.30;;;;;;5094839;28;20973;-79
2021/03/03 12:18:50;;;;;;;45.27;41.23;;;14.80;58.80;;;;;;5095288;28;20499;-79
2021/03/03 12:21:17;;;;;;;45.17;41.30;;;14.80;57.60;;;;;;5095171;28;20477;-79
2021/03/03 12:23:44;;;;;;;48.73;43.83;;;14.70;55.80;;;;;;5094961;28;20452;-79
2021/03/03 12:26:10;;;;;;;46.07;42.00;;;14.80;56.10;;;;;;5095679;28;20983;-79
2021/03/03 12:28:37;;;;;;;46.27;42.30;;;14.90;55.50;;;;;;5097274;28;20571;-80
2021/03/03 12:31:04;;;;;;;47.77;42.97;;;14.80;56.70;;;;;;5096492;28;20453;-79
2021/03/03 12:33:30;;;;;;;46.40;42.20;;;14.70;55.40;;;;;;5098127;28;20467;-79
2021/03/03 12:35:57;;;;;;;44.90;41.00;;;14.80;55.40;;;;;;5095542;28;20540;-79
2021/03/03 12:38:23;;;;;;;45.20;41.07;;;15.00;54.80;;;;;;5095737;28;20516;-79
2021/03/03 12:40:50;;;;;;;46.50;42.80;;;15.00;54.80;;;;;;5096115;28;20449;-79